Estación Meteorológica Peña el Pijo (Robertgarden) [ 12/17/17 01:39:53 CET ]

Fecha Hora Presion(HPa) Temp (°C) Humedad % Rocio (°C) Viento ( m/s) Direccion Lluvia 1Hora(mm) Lluvia 24H(mm) LLuvia Total(mm)
2017-Dec-12 01:01:39 995.500 3.8 76 -0.1       14.50 16.57
2017-Dec-12 02:01:40 995.800 3.4 76 -0.4       13.46 16.57
2017-Dec-12 03:06:41 996.900 2.4 78 -1.1       12.95 16.57
2017-Dec-12 04:01:42 997.300 1.8 80 -1.3       12.95 16.57
2017-Dec-12 05:01:40 997.200 0.9 82 -1.9       12.95 16.57
2017-Dec-12 06:01:40 998.400 -0.1 83 -2.6       4.14 16.57
2017-Dec-12 07:01:35 999.600 0.7 84 -1.7       2.07 16.57
2017-Dec-12 08:01:30 1000.600 0.8 85 -1.5       1.03 16.57
2017-Dec-12 09:01:29 1001.600 1.3 85 -1.0       1.03 16.57
2017-Dec-12 10:01:25 1002.600 3.9 83 1.3       0.51 16.57
2017-Dec-12 11:01:38 1003.600 6.3 68 0.8         16.57
2017-Dec-12 12:01:42 1003.700 7.9 55 -0.6         16.57
2017-Dec-12 13:01:57 1004.000 8.1 49 -2.0         16.57
2017-Dec-12 14:01:40 1004.200 9.3 40 -3.6         16.57
2017-Dec-12 15:01:49 1004.700 9.2 35 -5.6         16.57
2017-Dec-12 16:01:55 1005.400 8.1 33 -7.3         16.57
2017-Dec-12 17:01:54 1006.500 5.5 42 -6.5         16.57
2017-Dec-12 18:01:47 1007.700 3.4 49 -6.3         16.57
2017-Dec-12 19:01:58 1008.300 0.1 58 -7.2         16.57
2017-Dec-12 20:01:46 1009.500 -0.8 65 -6.6         16.57
2017-Dec-12 21:01:44 1010.400 -0.5 67 -5.9         16.57
2017-Dec-12 22:01:51 1011.000 -1.1 69 -6.1         16.57
2017-Dec-12 23:01:42 1011.600 -1.4 70 -6.2         16.57

Temperatura Máxima:    Temperatura Mínima:-1°
Presión Máxima:1011.600 Hpa    Presión Mínima:995.500 Hpa


Volver